sensor_id;sensor_type;location;lat;lon;timestamp;P1;durP1;ratioP1;P2;durP2;ratioP2
82635;SDS011;72317;37.280;-121.948;2024-01-15T00:00:55;3.38;;;0.50;;
82635;SDS011;72317;37.280;-121.948;2024-01-15T00:03:21;1.85;;;0.45;;
82635;SDS011;72317;37.280;-121.948;2024-01-15T00:05:48;0.82;;;0.40;;
82635;SDS011;72317;37.280;-121.948;2024-01-15T00:08:14;2.63;;;0.50;;
82635;SDS011;72317;37.280;-121.948;2024-01-15T00:10:40;0.68;;;0.40;;
82635;SDS011;72317;37.280;-121.948;2024-01-15T00:13:06;2.35;;;0.95;;
82635;SDS011;72317;37.280;-121.948;2024-01-15T00:15:32;2.15;;;0.55;;
82635;SDS011;72317;37.280;-121.948;2024-01-15T00:17:59;2.15;;;0.50;;
82635;SDS011;72317;37.280;-121.948;2024-01-15T00:20:25;3.22;;;0.40;;
82635;SDS011;72317;37.280;-121.948;2024-01-15T00:22:51;1.23;;;0.22;;
82635;SDS011;72317;37.280;-121.948;2024-01-15T00:25:19;4.72;;;0.65;;
82635;SDS011;72317;37.280;-121.948;2024-01-15T00:27:45;1.65;;;0.47;;
82635;SDS011;72317;37.280;-121.948;2024-01-15T00:30:11;1.38;;;0.60;;
82635;SDS011;72317;37.280;-121.948;2024-01-15T00:32:38;0.88;;;0.55;;
82635;SDS011;72317;37.280;-121.948;2024-01-15T00:35:04;1.80;;;0.70;;
82635;SDS011;72317;37.280;-121.948;2024-01-15T00:37:31;4.15;;;0.70;;
82635;SDS011;72317;37.280;-121.948;2024-01-15T00:39:57;3.58;;;0.55;;
82635;SDS011;72317;37.280;-121.948;2024-01-15T00:42:23;1.55;;;0.45;;
82635;SDS011;72317;37.280;-121.948;2024-01-15T00:44:49;1.75;;;0.68;;
82635;SDS011;72317;37.280;-121.948;2024-01-15T00:47:17;1.95;;;0.82;;
82635;SDS011;72317;37.280;-121.948;2024-01-15T00:49:44;2.00;;;0.70;;
82635;SDS011;72317;37.280;-121.948;2024-01-15T00:52:10;5.28;;;1.00;;
82635;SDS011;72317;37.280;-121.948;2024-01-15T00:54:36;1.88;;;0.90;;
82635;SDS011;72317;37.280;-121.948;2024-01-15T00:57:03;2.72;;;0.85;;
82635;SDS011;72317;37.280;-121.948;2024-01-15T00:59:29;3.65;;;0.90;;
82635;SDS011;72317;37.280;-121.948;2024-01-15T01:01:55;3.88;;;0.80;;
82635;SDS011;72317;37.280;-121.948;2024-01-15T01:04:22;3.88;;;0.68;;
82635;SDS011;72317;37.280;-121.948;2024-01-15T01:06:48;2.17;;;0.70;;
82635;SDS011;72317;37.280;-121.948;2024-01-15T01:09:14;4.47;;;1.00;;
82635;SDS011;72317;37.280;-121.948;2024-01-15T01:11:40;4.43;;;1.00;;
82635;SDS011;72317;37.280;-121.948;2024-01-15T01:14:06;2.63;;;0.70;;
82635;SDS011;72317;37.280;-121.948;2024-01-15T01:16:32;1.35;;;0.70;;
82635;SDS011;72317;37.280;-121.948;2024-01-15T01:19:05;3.28;;;1.02;;
82635;SDS011;72317;37.280;-121.948;2024-01-15T01:21:32;2.55;;;0.98;;
82635;SDS011;72317;37.280;-121.948;2024-01-15T01:23:59;5.63;;;1.10;;
82635;SDS011;72317;37.280;-121.948;2024-01-15T01:26:25;5.18;;;1.25;;
82635;SDS011;72317;37.280;-121.948;2024-01-15T01:28:51;1.73;;;0.93;;
82635;SDS011;72317;37.280;-121.948;2024-01-15T01:31:18;6.50;;;1.15;;
82635;SDS011;72317;37.280;-121.948;2024-01-15T01:33:44;5.07;;;1.40;;
82635;SDS011;72317;37.280;-121.948;2024-01-15T01:36:10;4.68;;;0.98;;
82635;SDS011;72317;37.280;-121.948;2024-01-15T01:38:37;2.42;;;0.90;;
82635;SDS011;72317;37.280;-121.948;2024-01-15T01:41:04;3.55;;;0.90;;
82635;SDS011;72317;37.280;-121.948;2024-01-15T01:43:30;5.88;;;1.10;;
82635;SDS011;72317;37.280;-121.948;2024-01-15T01:45:57;3.70;;;1.40;;
82635;SDS011;72317;37.280;-121.948;2024-01-15T01:48:24;5.53;;;1.45;;
82635;SDS011;72317;37.280;-121.948;2024-01-15T01:50:53;2.75;;;1.25;;
82635;SDS011;72317;37.280;-121.948;2024-01-15T01:53:21;2.95;;;1.15;;
82635;SDS011;72317;37.280;-121.948;2024-01-15T01:55:48;4.25;;;1.15;;
82635;SDS011;72317;37.280;-121.948;2024-01-15T01:58:16;4.75;;;1.30;;
82635;SDS011;72317;37.280;-121.948;2024-01-15T02:00:46;3.75;;;1.60;;
82635;SDS011;72317;37.280;-121.948;2024-01-15T02:03:14;6.32;;;1.52;;
82635;SDS011;72317;37.280;-121.948;2024-01-15T02:05:42;4.07;;;1.15;;
82635;SDS011;72317;37.280;-121.948;2024-01-15T02:08:12;5.50;;;1.15;;
82635;SDS011;72317;37.280;-121.948;2024-01-15T02:10:39;3.45;;;1.30;;
82635;SDS011;72317;37.280;-121.948;2024-01-15T02:13:06;4.28;;;1.45;;
82635;SDS011;72317;37.280;-121.948;2024-01-15T02:15:33;5.50;;;1.60;;
82635;SDS011;72317;37.280;-121.948;2024-01-15T02:18:01;4.45;;;1.60;;
82635;SDS011;72317;37.280;-121.948;2024-01-15T02:20:30;7.80;;;1.27;;
82635;SDS011;72317;37.280;-121.948;2024-01-15T02:25:41;4.65;;;1.60;;
82635;SDS011;72317;37.280;-121.948;2024-01-15T02:28:11;7.28;;;1.70;;
82635;SDS011;72317;37.280;-121.948;2024-01-15T02:30:39;4.90;;;2.13;;
82635;SDS011;72317;37.280;-121.948;2024-01-15T02:33:07;6.32;;;1.80;;
82635;SDS011;72317;37.280;-121.948;2024-01-15T02:35:35;7.40;;;1.70;;
82635;SDS011;72317;37.280;-121.948;2024-01-15T02:38:02;3.85;;;1.60;;
82635;SDS011;72317;37.280;-121.948;2024-01-15T02:40:30;8.20;;;2.13;;
82635;SDS011;72317;37.280;-121.948;2024-01-15T02:42:57;6.70;;;1.88;;
82635;SDS011;72317;37.280;-121.948;2024-01-15T02:45:23;9.75;;;1.65;;
82635;SDS011;72317;37.280;-121.948;2024-01-15T02:47:51;5.80;;;2.03;;
82635;SDS011;72317;37.280;-121.948;2024-01-15T02:50:17;7.68;;;2.28;;
82635;SDS011;72317;37.280;-121.948;2024-01-15T02:52:44;7.80;;;2.97;;
82635;SDS011;72317;37.280;-121.948;2024-01-15T02:55:11;9.52;;;2.60;;
82635;SDS011;72317;37.280;-121.948;2024-01-15T02:57:38;6.47;;;2.60;;
82635;SDS011;72317;37.280;-121.948;2024-01-15T03:00:05;8.05;;;2.67;;
82635;SDS011;72317;37.280;-121.948;2024-01-15T03:02:32;5.90;;;2.70;;
82635;SDS011;72317;37.280;-121.948;2024-01-15T03:05:04;7.82;;;2.58;;
82635;SDS011;72317;37.280;-121.948;2024-01-15T03:07:32;6.18;;;2.50;;
82635;SDS011;72317;37.280;-121.948;2024-01-15T03:09:59;9.65;;;2.88;;
82635;SDS011;72317;37.280;-121.948;2024-01-15T03:12:26;6.85;;;2.58;;
82635;SDS011;72317;37.280;-121.948;2024-01-15T03:14:52;7.22;;;2.40;;
82635;SDS011;72317;37.280;-121.948;2024-01-15T03:17:41;6.32;;;3.00;;
82635;SDS011;72317;37.280;-121.948;2024-01-15T03:20:08;6.13;;;2.95;;
82635;SDS011;72317;37.280;-121.948;2024-01-15T03:22:35;9.43;;;2.75;;
82635;SDS011;72317;37.280;-121.948;2024-01-15T03:25:01;5.70;;;2.72;;
82635;SDS011;72317;37.280;-121.948;2024-01-15T03:27:28;6.57;;;3.03;;
82635;SDS011;72317;37.280;-121.948;2024-01-15T03:29:54;4.93;;;2.90;;
82635;SDS011;72317;37.280;-121.948;2024-01-15T03:32:20;5.90;;;3.15;;
82635;SDS011;72317;37.280;-121.948;2024-01-15T03:34:47;5.72;;;2.65;;
82635;SDS011;72317;37.280;-121.948;2024-01-15T03:37:13;5.80;;;2.67;;
82635;SDS011;72317;37.280;-121.948;2024-01-15T03:39:39;7.28;;;2.80;;
82635;SDS011;72317;37.280;-121.948;2024-01-15T03:42:06;6.45;;;2.72;;
82635;SDS011;72317;37.280;-121.948;2024-01-15T03:44:32;4.53;;;2.50;;
82635;SDS011;72317;37.280;-121.948;2024-01-15T03:46:59;4.78;;;2.30;;
82635;SDS011;72317;37.280;-121.948;2024-01-15T03:49:26;9.52;;;2.20;;
82635;SDS011;72317;37.280;-121.948;2024-01-15T03:51:52;5.88;;;2.30;;
82635;SDS011;72317;37.280;-121.948;2024-01-15T03:54:18;4.35;;;1.92;;
82635;SDS011;72317;37.280;-121.948;2024-01-15T03:56:44;4.90;;;2.40;;
82635;SDS011;72317;37.280;-121.948;2024-01-15T03:59:11;6.68;;;2.20;;
82635;SDS011;72317;37.280;-121.948;2024-01-15T04:01:37;5.90;;;2.38;;
82635;SDS011;72317;37.280;-121.948;2024-01-15T04:04:03;6.47;;;2.67;;
82635;SDS011;72317;37.280;-121.948;2024-01-15T04:06:29;10.70;;;2.17;;
82635;SDS011;72317;37.280;-121.948;2024-01-15T04:08:56;6.88;;;2.33;;
82635;SDS011;72317;37.280;-121.948;2024-01-15T04:11:22;6.53;;;2.15;;
82635;SDS011;72317;37.280;-121.948;2024-01-15T04:13:48;9.05;;;2.33;;
82635;SDS011;72317;37.280;-121.948;2024-01-15T04:16:14;5.43;;;2.20;;
82635;SDS011;72317;37.280;-121.948;2024-01-15T04:18:41;5.03;;;2.60;;
82635;SDS011;72317;37.280;-121.948;2024-01-15T04:21:07;8.10;;;2.75;;
82635;SDS011;72317;37.280;-121.948;2024-01-15T04:23:33;6.45;;;2.90;;
82635;SDS011;72317;37.280;-121.948;2024-01-15T04:26:00;7.18;;;3.50;;
82635;SDS011;72317;37.280;-121.948;2024-01-15T04:28:26;10.48;;;3.45;;
82635;SDS011;72317;37.280;-121.948;2024-01-15T04:30:52;13.68;;;4.78;;
82635;SDS011;72317;37.280;-121.948;2024-01-15T04:33:18;8.80;;;4.60;;
82635;SDS011;72317;37.280;-121.948;2024-01-15T04:35:45;10.82;;;4.90;;
82635;SDS011;72317;37.280;-121.948;2024-01-15T04:38:11;11.77;;;4.30;;
82635;SDS011;72317;37.280;-121.948;2024-01-15T04:40:37;8.80;;;4.50;;
82635;SDS011;72317;37.280;-121.948;2024-01-15T04:43:04;11.40;;;4.30;;
82635;SDS011;72317;37.280;-121.948;2024-01-15T04:45:30;10.05;;;4.03;;
82635;SDS011;72317;37.280;-121.948;2024-01-15T04:47:56;10.55;;;3.92;;
82635;SDS011;72317;37.280;-121.948;2024-01-15T04:50:23;8.80;;;3.65;;
82635;SDS011;72317;37.280;-121.948;2024-01-15T04:52:49;6.65;;;3.83;;
82635;SDS011;72317;37.280;-121.948;2024-01-15T04:55:16;7.25;;;3.25;;
82635;SDS011;72317;37.280;-121.948;2024-01-15T04:57:42;7.80;;;3.63;;
82635;SDS011;72317;37.280;-121.948;2024-01-15T05:00:09;7.43;;;3.88;;
82635;SDS011;72317;37.280;-121.948;2024-01-15T05:02:35;9.43;;;3.67;;
82635;SDS011;72317;37.280;-121.948;2024-01-15T05:05:02;9.38;;;3.70;;
82635;SDS011;72317;37.280;-121.948;2024-01-15T05:07:28;9.27;;;3.72;;
82635;SDS011;72317;37.280;-121.948;2024-01-15T05:09:54;9.48;;;3.40;;
82635;SDS011;72317;37.280;-121.948;2024-01-15T05:12:20;7.65;;;3.47;;
82635;SDS011;72317;37.280;-121.948;2024-01-15T05:14:46;6.40;;;3.40;;
82635;SDS011;72317;37.280;-121.948;2024-01-15T05:17:12;6.15;;;2.97;;
82635;SDS011;72317;37.280;-121.948;2024-01-15T05:19:39;7.82;;;3.05;;
82635;SDS011;72317;37.280;-121.948;2024-01-15T05:22:05;5.40;;;3.00;;
82635;SDS011;72317;37.280;-121.948;2024-01-15T05:24:31;4.80;;;2.95;;
82635;SDS011;72317;37.280;-121.948;2024-01-15T05:26:57;8.85;;;3.30;;
82635;SDS011;72317;37.280;-121.948;2024-01-15T05:29:23;5.57;;;2.78;;
82635;SDS011;72317;37.280;-121.948;2024-01-15T05:31:49;9.07;;;2.67;;
82635;SDS011;72317;37.280;-121.948;2024-01-15T05:34:15;6.78;;;2.83;;
82635;SDS011;72317;37.280;-121.948;2024-01-15T05:36:41;7.43;;;3.58;;
82635;SDS011;72317;37.280;-121.948;2024-01-15T05:39:08;8.20;;;3.38;;
82635;SDS011;72317;37.280;-121.948;2024-01-15T05:41:34;6.97;;;3.15;;
82635;SDS011;72317;37.280;-121.948;2024-01-15T05:44:00;7.30;;;3.67;;
82635;SDS011;72317;37.280;-121.948;2024-01-15T05:46:26;6.65;;;3.33;;
82635;SDS011;72317;37.280;-121.948;2024-01-15T05:48:52;9.25;;;3.55;;
82635;SDS011;72317;37.280;-121.948;2024-01-15T05:51:19;8.95;;;3.60;;
82635;SDS011;72317;37.280;-121.948;2024-01-15T05:53:45;6.38;;;3.22;;
82635;SDS011;72317;37.280;-121.948;2024-01-15T05:56:11;10.68;;;3.92;;
82635;SDS011;72317;37.280;-121.948;2024-01-15T05:58:37;10.88;;;3.83;;
82635;SDS011;72317;37.280;-121.948;2024-01-15T06:01:03;9.82;;;3.72;;
82635;SDS011;72317;37.280;-121.948;2024-01-15T06:03:29;11.68;;;4.55;;
82635;SDS011;72317;37.280;-121.948;2024-01-15T06:05:55;11.20;;;3.60;;
82635;SDS011;72317;37.280;-121.948;2024-01-15T06:08:22;9.63;;;3.80;;
82635;SDS011;72317;37.280;-121.948;2024-01-15T06:10:48;9.13;;;3.55;;
82635;SDS011;72317;37.280;-121.948;2024-01-15T06:13:14;6.53;;;3.40;;
82635;SDS011;72317;37.280;-121.948;2024-01-15T06:15:40;7.82;;;3.38;;
82635;SDS011;72317;37.280;-121.948;2024-01-15T06:18:06;6.32;;;3.50;;
82635;SDS011;72317;37.280;-121.948;2024-01-15T06:20:32;6.38;;;3.53;;
82635;SDS011;72317;37.280;-121.948;2024-01-15T06:22:58;10.85;;;3.88;;
82635;SDS011;72317;37.280;-121.948;2024-01-15T06:25:25;10.20;;;3.33;;
82635;SDS011;72317;37.280;-121.948;2024-01-15T06:27:51;8.20;;;3.30;;
82635;SDS011;72317;37.280;-121.948;2024-01-15T06:30:17;7.55;;;3.70;;
82635;SDS011;72317;37.280;-121.948;2024-01-15T06:32:43;6.50;;;3.05;;
82635;SDS011;72317;37.280;-121.948;2024-01-15T06:35:09;7.25;;;2.88;;
82635;SDS011;72317;37.280;-121.948;2024-01-15T06:37:37;8.90;;;2.70;;
82635;SDS011;72317;37.280;-121.948;2024-01-15T06:40:03;7.95;;;2.90;;
82635;SDS011;72317;37.280;-121.948;2024-01-15T06:42:30;5.72;;;3.10;;
82635;SDS011;72317;37.280;-121.948;2024-01-15T06:44:57;6.55;;;2.97;;
82635;SDS011;72317;37.280;-121.948;2024-01-15T06:47:23;9.48;;;3.05;;
82635;SDS011;72317;37.280;-121.948;2024-01-15T06:49:49;6.88;;;2.88;;
82635;SDS011;72317;37.280;-121.948;2024-01-15T06:52:17;8.65;;;2.85;;
82635;SDS011;72317;37.280;-121.948;2024-01-15T06:54:43;7.40;;;3.08;;
82635;SDS011;72317;37.280;-121.948;2024-01-15T06:57:10;9.23;;;3.20;;
82635;SDS011;72317;37.280;-121.948;2024-01-15T06:59:36;7.65;;;3.08;;
82635;SDS011;72317;37.280;-121.948;2024-01-15T07:02:02;6.35;;;3.25;;
82635;SDS011;72317;37.280;-121.948;2024-01-15T07:04:28;9.18;;;2.88;;
82635;SDS011;72317;37.280;-121.948;2024-01-15T07:06:54;5.13;;;2.50;;
82635;SDS011;72317;37.280;-121.948;2024-01-15T07:09:21;5.03;;;2.38;;
82635;SDS011;72317;37.280;-121.948;2024-01-15T07:11:48;6.65;;;2.40;;
82635;SDS011;72317;37.280;-121.948;2024-01-15T07:14:14;4.13;;;2.03;;
82635;SDS011;72317;37.280;-121.948;2024-01-15T07:16:40;9.02;;;2.40;;
82635;SDS011;72317;37.280;-121.948;2024-01-15T07:19:06;5.93;;;2.42;;
82635;SDS011;72317;37.280;-121.948;2024-01-15T07:21:32;5.65;;;2.08;;
82635;SDS011;72317;37.280;-121.948;2024-01-15T07:23:58;5.05;;;2.30;;
82635;SDS011;72317;37.280;-121.948;2024-01-15T07:26:25;4.60;;;1.90;;
82635;SDS011;72317;37.280;-121.948;2024-01-15T07:28:51;4.20;;;1.83;;
82635;SDS011;72317;37.280;-121.948;2024-01-15T07:31:17;6.25;;;1.60;;
82635;SDS011;72317;37.280;-121.948;2024-01-15T07:33:43;5.57;;;1.88;;
82635;SDS011;72317;37.280;-121.948;2024-01-15T07:36:09;4.75;;;1.80;;
82635;SDS011;72317;37.280;-121.948;2024-01-15T07:38:36;7.05;;;1.85;;
82635;SDS011;72317;37.280;-121.948;2024-01-15T07:41:02;6.00;;;2.10;;
82635;SDS011;72317;37.280;-121.948;2024-01-15T07:43:29;8.45;;;2.20;;
82635;SDS011;72317;37.280;-121.948;2024-01-15T07:45:55;6.28;;;2.67;;
82635;SDS011;72317;37.280;-121.948;2024-01-15T07:48:22;8.95;;;2.33;;
82635;SDS011;72317;37.280;-121.948;2024-01-15T07:50:49;6.25;;;1.85;;
82635;SDS011;72317;37.280;-121.948;2024-01-15T07:53:15;6.00;;;1.60;;
82635;SDS011;72317;37.280;-121.948;2024-01-15T07:55:41;7.88;;;1.67;;
82635;SDS011;72317;37.280;-121.948;2024-01-15T07:58:07;7.28;;;1.77;;
82635;SDS011;72317;37.280;-121.948;2024-01-15T08:00:33;6.18;;;1.38;;
82635;SDS011;72317;37.280;-121.948;2024-01-15T08:02:59;5.63;;;1.33;;
82635;SDS011;72317;37.280;-121.948;2024-01-15T08:05:26;4.07;;;1.55;;
82635;SDS011;72317;37.280;-121.948;2024-01-15T08:07:53;3.75;;;1.38;;
82635;SDS011;72317;37.280;-121.948;2024-01-15T08:10:19;4.90;;;1.40;;
82635;SDS011;72317;37.280;-121.948;2024-01-15T08:12:45;4.28;;;1.20;;
82635;SDS011;72317;37.280;-121.948;2024-01-15T08:15:11;2.55;;;1.38;;
82635;SDS011;72317;37.280;-121.948;2024-01-15T08:17:37;5.93;;;1.55;;
82635;SDS011;72317;37.280;-121.948;2024-01-15T08:20:04;2.80;;;1.40;;
82635;SDS011;72317;37.280;-121.948;2024-01-15T08:22:30;4.43;;;1.73;;
82635;SDS011;72317;37.280;-121.948;2024-01-15T08:24:56;3.40;;;1.70;;
82635;SDS011;72317;37.280;-121.948;2024-01-15T08:27:22;5.75;;;1.42;;
82635;SDS011;72317;37.280;-121.948;2024-01-15T08:29:48;5.78;;;1.55;;
82635;SDS011;72317;37.280;-121.948;2024-01-15T08:32:15;3.28;;;1.40;;
82635;SDS011;72317;37.280;-121.948;2024-01-15T08:34:41;6.97;;;1.70;;
82635;SDS011;72317;37.280;-121.948;2024-01-15T08:37:08;5.60;;;1.55;;
82635;SDS011;72317;37.280;-121.948;2024-01-15T08:39:34;6.78;;;1.70;;
82635;SDS011;72317;37.280;-121.948;2024-01-15T08:42:04;4.68;;;1.73;;
82635;SDS011;72317;37.280;-121.948;2024-01-15T08:44:30;6.95;;;1.80;;
82635;SDS011;72317;37.280;-121.948;2024-01-15T08:46:56;13.07;;;1.90;;
82635;SDS011;72317;37.280;-121.948;2024-01-15T08:49:22;4.75;;;2.00;;
82635;SDS011;72317;37.280;-121.948;2024-01-15T08:51:49;5.07;;;1.95;;
82635;SDS011;72317;37.280;-121.948;2024-01-15T08:54:15;6.72;;;2.08;;
82635;SDS011;72317;37.280;-121.948;2024-01-15T08:56:41;6.65;;;2.13;;
82635;SDS011;72317;37.280;-121.948;2024-01-15T08:59:07;6.97;;;2.15;;
82635;SDS011;72317;37.280;-121.948;2024-01-15T09:01:33;5.95;;;2.20;;
82635;SDS011;72317;37.280;-121.948;2024-01-15T09:03:59;9.38;;;2.10;;
82635;SDS011;72317;37.280;-121.948;2024-01-15T09:06:25;5.75;;;2.30;;
82635;SDS011;72317;37.280;-121.948;2024-01-15T09:08:52;6.35;;;2.20;;
82635;SDS011;72317;37.280;-121.948;2024-01-15T09:11:18;7.03;;;2.25;;
82635;SDS011;72317;37.280;-121.948;2024-01-15T09:13:44;6.45;;;2.05;;
82635;SDS011;72317;37.280;-121.948;2024-01-15T09:16:10;5.47;;;2.20;;
82635;SDS011;72317;37.280;-121.948;2024-01-15T09:18:36;4.22;;;2.13;;
82635;SDS011;72317;37.280;-121.948;2024-01-15T09:21:03;6.68;;;2.70;;
82635;SDS011;72317;37.280;-121.948;2024-01-15T09:23:29;6.05;;;2.30;;
82635;SDS011;72317;37.280;-121.948;2024-01-15T09:25:55;10.02;;;2.83;;
82635;SDS011;72317;37.280;-121.948;2024-01-15T09:28:22;5.90;;;2.90;;
82635;SDS011;72317;37.280;-121.948;2024-01-15T09:30:48;13.00;;;3.35;;
82635;SDS011;72317;37.280;-121.948;2024-01-15T09:33:14;6.05;;;3.22;;
82635;SDS011;72317;37.280;-121.948;2024-01-15T09:35:40;10.27;;;3.35;;
82635;SDS011;72317;37.280;-121.948;2024-01-15T09:38:06;9.43;;;2.85;;
82635;SDS011;72317;37.280;-121.948;2024-01-15T09:40:32;8.70;;;2.97;;
82635;SDS011;72317;37.280;-121.948;2024-01-15T09:42:59;9.35;;;3.20;;
82635;SDS011;72317;37.280;-121.948;2024-01-15T09:45:26;7.20;;;3.30;;
82635;SDS011;72317;37.280;-121.948;2024-01-15T09:47:52;10.00;;;3.50;;
82635;SDS011;72317;37.280;-121.948;2024-01-15T09:50:18;9.82;;;3.83;;
82635;SDS011;72317;37.280;-121.948;2024-01-15T09:52:45;6.40;;;3.03;;
82635;SDS011;72317;37.280;-121.948;2024-01-15T09:55:31;7.57;;;4.00;;
82635;SDS011;72317;37.280;-121.948;2024-01-15T09:58:00;12.63;;;3.63;;
82635;SDS011;72317;37.280;-121.948;2024-01-15T10:00:27;11.27;;;3.60;;
82635;SDS011;72317;37.280;-121.948;2024-01-15T10:02:55;9.38;;;3.58;;
82635;SDS011;72317;37.280;-121.948;2024-01-15T10:05:22;8.32;;;3.47;;
82635;SDS011;72317;37.280;-121.948;2024-01-15T10:07:48;8.02;;;3.85;;
82635;SDS011;72317;37.280;-121.948;2024-01-15T10:10:15;9.02;;;3.88;;
82635;SDS011;72317;37.280;-121.948;2024-01-15T10:12:41;12.07;;;3.83;;
82635;SDS011;72317;37.280;-121.948;2024-01-15T10:15:11;7.95;;;3.47;;
82635;SDS011;72317;37.280;-121.948;2024-01-15T10:17:38;7.60;;;3.50;;
82635;SDS011;72317;37.280;-121.948;2024-01-15T10:20:07;12.27;;;3.33;;
82635;SDS011;72317;37.280;-121.948;2024-01-15T10:22:35;12.30;;;3.10;;
82635;SDS011;72317;37.280;-121.948;2024-01-15T10:25:04;10.30;;;3.13;;
82635;SDS011;72317;37.280;-121.948;2024-01-15T10:27:30;7.72;;;2.90;;
82635;SDS011;72317;37.280;-121.948;2024-01-15T10:30:00;7.90;;;3.10;;
82635;SDS011;72317;37.280;-121.948;2024-01-15T10:32:27;6.43;;;3.40;;
82635;SDS011;72317;37.280;-121.948;2024-01-15T10:34:54;12.27;;;3.47;;
82635;SDS011;72317;37.280;-121.948;2024-01-15T10:37:20;6.65;;;3.38;;
82635;SDS011;72317;37.280;-121.948;2024-01-15T10:39:49;7.28;;;3.35;;
82635;SDS011;72317;37.280;-121.948;2024-01-15T10:42:15;6.07;;;2.97;;
82635;SDS011;72317;37.280;-121.948;2024-01-15T10:44:43;8.45;;;3.33;;
82635;SDS011;72317;37.280;-121.948;2024-01-15T10:47:09;9.13;;;2.65;;
82635;SDS011;72317;37.280;-121.948;2024-01-15T10:49:37;11.35;;;3.42;;
82635;SDS011;72317;37.280;-121.948;2024-01-15T10:52:03;7.32;;;2.92;;
82635;SDS011;72317;37.280;-121.948;2024-01-15T10:54:30;5.35;;;2.78;;
82635;SDS011;72317;37.280;-121.948;2024-01-15T10:56:57;8.68;;;3.20;;
82635;SDS011;72317;37.280;-121.948;2024-01-15T10:59:23;9.02;;;2.92;;
82635;SDS011;72317;37.280;-121.948;2024-01-15T11:01:50;9.98;;;3.13;;
82635;SDS011;72317;37.280;-121.948;2024-01-15T11:04:20;6.88;;;3.10;;
82635;SDS011;72317;37.280;-121.948;2024-01-15T11:06:50;9.35;;;3.38;;
82635;SDS011;72317;37.280;-121.948;2024-01-15T11:09:18;10.82;;;3.08;;
82635;SDS011;72317;37.280;-121.948;2024-01-15T11:11:45;6.30;;;3.15;;
82635;SDS011;72317;37.280;-121.948;2024-01-15T11:17:01;8.52;;;3.13;;
82635;SDS011;72317;37.280;-121.948;2024-01-15T11:19:37;9.23;;;2.85;;
82635;SDS011;72317;37.280;-121.948;2024-01-15T11:22:08;11.00;;;2.97;;
82635;SDS011;72317;37.280;-121.948;2024-01-15T11:24:38;6.63;;;3.25;;
82635;SDS011;72317;37.280;-121.948;2024-01-15T11:27:06;7.57;;;2.40;;
82635;SDS011;72317;37.280;-121.948;2024-01-15T11:29:34;11.68;;;2.90;;
82635;SDS011;72317;37.280;-121.948;2024-01-15T11:32:02;8.82;;;2.40;;
82635;SDS011;72317;37.280;-121.948;2024-01-15T11:34:51;5.15;;;2.42;;
82635;SDS011;72317;37.280;-121.948;2024-01-15T11:37:19;5.75;;;2.80;;
82635;SDS011;72317;37.280;-121.948;2024-01-15T11:39:50;6.05;;;2.70;;
82635;SDS011;72317;37.280;-121.948;2024-01-15T11:42:17;8.40;;;2.70;;
82635;SDS011;72317;37.280;-121.948;2024-01-15T11:44:45;8.57;;;2.80;;
82635;SDS011;72317;37.280;-121.948;2024-01-15T11:47:12;10.18;;;3.08;;
82635;SDS011;72317;37.280;-121.948;2024-01-15T11:52:25;7.25;;;2.97;;
82635;SDS011;72317;37.280;-121.948;2024-01-15T11:54:55;9.23;;;2.78;;
82635;SDS011;72317;37.280;-121.948;2024-01-15T11:57:40;8.93;;;3.50;;
82635;SDS011;72317;37.280;-121.948;2024-01-15T12:00:11;8.73;;;3.63;;
82635;SDS011;72317;37.280;-121.948;2024-01-15T12:02:39;9.75;;;3.47;;
82635;SDS011;72317;37.280;-121.948;2024-01-15T12:05:07;7.38;;;3.22;;
82635;SDS011;72317;37.280;-121.948;2024-01-15T12:07:34;12.43;;;3.72;;
82635;SDS011;72317;37.280;-121.948;2024-01-15T12:10:00;15.00;;;3.90;;
82635;SDS011;72317;37.280;-121.948;2024-01-15T12:15:14;14.88;;;4.72;;
82635;SDS011;72317;37.280;-121.948;2024-01-15T12:17:41;10.63;;;4.85;;
82635;SDS011;72317;37.280;-121.948;2024-01-15T12:20:07;15.00;;;4.95;;
82635;SDS011;72317;37.280;-121.948;2024-01-15T12:22:34;10.63;;;4.45;;
82635;SDS011;72317;37.280;-121.948;2024-01-15T12:25:00;11.90;;;4.97;;
82635;SDS011;72317;37.280;-121.948;2024-01-15T12:27:26;12.68;;;5.18;;
82635;SDS011;72317;37.280;-121.948;2024-01-15T12:29:53;12.55;;;4.90;;
82635;SDS011;72317;37.280;-121.948;2024-01-15T12:32:19;11.98;;;4.50;;
82635;SDS011;72317;37.280;-121.948;2024-01-15T12:34:48;11.40;;;3.75;;
82635;SDS011;72317;37.280;-121.948;2024-01-15T12:37:17;11.52;;;3.90;;
82635;SDS011;72317;37.280;-121.948;2024-01-15T12:39:47;10.68;;;4.05;;
82635;SDS011;72317;37.280;-121.948;2024-01-15T12:42:16;11.27;;;3.90;;
82635;SDS011;72317;37.280;-121.948;2024-01-15T12:44:44;13.23;;;3.78;;
82635;SDS011;72317;37.280;-121.948;2024-01-15T12:47:10;9.73;;;3.65;;
82635;SDS011;72317;37.280;-121.948;2024-01-15T12:49:38;8.75;;;3.97;;
82635;SDS011;72317;37.280;-121.948;2024-01-15T12:52:08;8.10;;;3.40;;
82635;SDS011;72317;37.280;-121.948;2024-01-15T12:54:35;8.18;;;3.58;;
82635;SDS011;72317;37.280;-121.948;2024-01-15T12:57:01;11.00;;;3.47;;
82635;SDS011;72317;37.280;-121.948;2024-01-15T12:59:27;9.68;;;3.70;;
82635;SDS011;72317;37.280;-121.948;2024-01-15T13:01:54;9.63;;;3.95;;
82635;SDS011;72317;37.280;-121.948;2024-01-15T13:04:24;12.38;;;4.00;;
82635;SDS011;72317;37.280;-121.948;2024-01-15T13:06:50;12.27;;;4.22;;
82635;SDS011;72317;37.280;-121.948;2024-01-15T13:09:17;9.98;;;4.18;;
82635;SDS011;72317;37.280;-121.948;2024-01-15T13:11:46;11.27;;;4.70;;
82635;SDS011;72317;37.280;-121.948;2024-01-15T13:14:13;10.80;;;4.70;;
82635;SDS011;72317;37.280;-121.948;2024-01-15T13:16:40;12.57;;;5.18;;
82635;SDS011;72317;37.280;-121.948;2024-01-15T13:19:07;15.07;;;5.13;;
82635;SDS011;72317;37.280;-121.948;2024-01-15T13:21:36;14.30;;;5.15;;
82635;SDS011;72317;37.280;-121.948;2024-01-15T13:24:03;14.32;;;4.85;;
82635;SDS011;72317;37.280;-121.948;2024-01-15T13:26:31;10.20;;;4.75;;
82635;SDS011;72317;37.280;-121.948;2024-01-15T13:28:59;12.13;;;4.40;;
82635;SDS011;72317;37.280;-121.948;2024-01-15T13:31:26;9.98;;;4.65;;
82635;SDS011;72317;37.280;-121.948;2024-01-15T13:34:13;10.45;;;4.40;;
82635;SDS011;72317;37.280;-121.948;2024-01-15T13:36:39;11.05;;;4.45;;
82635;SDS011;72317;37.280;-121.948;2024-01-15T13:39:06;8.55;;;4.28;;
82635;SDS011;72317;37.280;-121.948;2024-01-15T13:41:34;11.30;;;4.28;;
82635;SDS011;72317;37.280;-121.948;2024-01-15T13:44:01;8.93;;;3.90;;
82635;SDS011;72317;37.280;-121.948;2024-01-15T13:46:28;7.97;;;3.80;;
82635;SDS011;72317;37.280;-121.948;2024-01-15T13:48:59;8.73;;;3.80;;
82635;SDS011;72317;37.280;-121.948;2024-01-15T13:51:25;9.82;;;3.30;;
82635;SDS011;72317;37.280;-121.948;2024-01-15T13:53:51;10.15;;;4.30;;
82635;SDS011;72317;37.280;-121.948;2024-01-15T13:56:18;10.77;;;3.50;;
82635;SDS011;72317;37.280;-121.948;2024-01-15T13:58:44;8.35;;;3.75;;
82635;SDS011;72317;37.280;-121.948;2024-01-15T14:01:10;9.95;;;3.33;;
82635;SDS011;72317;37.280;-121.948;2024-01-15T14:03:37;10.27;;;3.83;;
82635;SDS011;72317;37.280;-121.948;2024-01-15T14:06:03;11.00;;;3.65;;
82635;SDS011;72317;37.280;-121.948;2024-01-15T14:08:34;7.70;;;3.58;;
82635;SDS011;72317;37.280;-121.948;2024-01-15T14:11:04;10.43;;;3.92;;
82635;SDS011;72317;37.280;-121.948;2024-01-15T14:13:31;7.35;;;3.45;;
82635;SDS011;72317;37.280;-121.948;2024-01-15T14:15:58;8.95;;;3.72;;